Time;durP1;ratioP1;P1;durP2;ratioP2;P2;SDS_P1;SDS_P2;PMS_P1;PMS_P2;Temp;Humidity;BMP_temperature;BMP_pressure;BME280_temperature;BME280_humidity;BME280_pressure;Samples;Min_cycle;Max_cycle;Signal;HPM_P1;HPM_P2
2021/11/03 00:01:06;;;;;;;12.05;10.80;;;4.80;99.90;;;;;;4971316;28;20031;-72
2021/11/03 00:03:33;;;;;;;9.45;8.55;;;4.80;99.90;;;;;;4957265;28;20031;-72
2021/11/03 00:06:00;;;;;;;11.68;10.43;;;4.90;99.90;;;;;;4954278;28;20031;-72
2021/11/03 00:08:29;;;;;;;9.15;8.35;;;4.90;99.90;;;;;;4953573;28;20047;-72
2021/11/03 00:10:56;;;;;;;8.85;7.95;;;4.90;99.90;;;;;;4953933;28;20039;-72
2021/11/03 00:13:24;;;;;;;9.77;9.02;;;4.90;99.90;;;;;;4953987;28;20465;-72
2021/11/03 00:15:52;;;;;;;9.85;9.05;;;4.90;99.90;;;;;;4954100;28;20035;-75
2021/11/03 00:18:19;;;;;;;10.10;9.13;;;5.00;99.90;;;;;;4953393;28;20043;-72
2021/11/03 00:20:46;;;;;;;10.77;9.75;;;5.00;99.90;;;;;;4954277;28;20354;-72
2021/11/03 00:23:13;;;;;;;11.13;9.98;;;5.00;99.90;;;;;;4953609;28;20082;-79
2021/11/03 00:25:45;;;;;;;10.15;9.25;;;5.00;99.90;;;;;;4968613;28;20485;-72
2021/11/03 00:28:14;;;;;;;11.20;10.18;;;5.10;99.90;;;;;;4953984;28;20051;-72
2021/11/03 00:30:41;;;;;;;11.00;9.80;;;5.10;99.90;;;;;;4953948;28;20456;-72
2021/11/03 00:33:08;;;;;;;11.52;10.50;;;5.20;99.90;;;;;;4954228;28;20035;-72
2021/11/03 00:35:35;;;;;;;12.40;9.45;;;5.20;99.90;;;;;;4953575;28;20050;-72
2021/11/03 00:38:02;;;;;;;9.10;8.40;;;5.20;99.90;;;;;;4953953;28;20035;-73
2021/11/03 00:40:28;;;;;;;10.20;9.30;;;5.10;99.90;;;;;;4967902;28;20036;-72
2021/11/03 00:42:55;;;;;;;9.52;8.73;;;5.20;99.90;;;;;;4953996;28;20043;-73
2021/11/03 00:45:21;;;;;;;13.20;9.35;;;5.20;99.90;;;;;;4952510;28;20047;-72
2021/11/03 00:47:48;;;;;;;10.70;9.65;;;5.10;99.90;;;;;;4953332;28;20066;-73
2021/11/03 00:50:17;;;;;;;9.68;8.40;;;5.20;99.90;;;;;;4953466;28;20031;-78
2021/11/03 00:52:43;;;;;;;11.00;10.10;;;5.20;99.90;;;;;;4953804;28;20374;-72
2021/11/03 00:55:10;;;;;;;11.70;9.95;;;5.10;99.90;;;;;;4967975;28;20481;-72
2021/11/03 00:57:37;;;;;;;9.05;8.32;;;5.10;99.90;;;;;;4965748;28;20039;-72
2021/11/03 01:00:06;;;;;;;9.32;8.27;;;5.00;99.90;;;;;;4966753;28;20038;-72
2021/11/03 01:02:33;;;;;;;15.63;9.27;;;5.00;99.90;;;;;;4953186;28;20046;-72
2021/11/03 01:05:00;;;;;;;9.23;8.32;;;5.00;99.90;;;;;;4953576;28;20047;-72
2021/11/03 01:07:26;;;;;;;11.98;10.88;;;5.00;99.90;;;;;;4953477;28;20449;-72
2021/11/03 01:09:53;;;;;;;9.52;8.77;;;5.00;99.90;;;;;;4953861;28;20036;-72
2021/11/03 01:12:19;;;;;;;10.50;9.65;;;5.10;99.90;;;;;;4953640;28;20389;-72
2021/11/03 01:14:46;;;;;;;10.52;9.52;;;5.10;99.90;;;;;;4969178;28;20050;-73
2021/11/03 01:17:13;;;;;;;9.20;8.50;;;5.20;99.90;;;;;;4951751;28;20400;-78
2021/11/03 01:19:39;;;;;;;10.15;9.18;;;5.20;99.90;;;;;;4953489;28;20035;-72
2021/11/03 01:22:07;;;;;;;10.55;9.55;;;5.30;99.90;;;;;;4952237;28;20047;-72
2021/11/03 01:24:33;;;;;;;10.15;9.25;;;5.20;99.90;;;;;;4967832;28;20480;-72
2021/11/03 01:26:59;;;;;;;10.43;9.52;;;5.30;99.90;;;;;;4952074;28;20050;-72
2021/11/03 01:29:26;;;;;;;10.52;9.60;;;5.20;99.90;;;;;;4977231;28;20066;-72
2021/11/03 01:31:52;;;;;;;10.55;9.65;;;5.30;99.90;;;;;;4953422;28;20473;-72
2021/11/03 01:34:20;;;;;;;10.98;10.10;;;5.40;99.90;;;;;;4953098;28;20054;-72
2021/11/03 01:36:46;;;;;;;11.38;10.18;;;5.40;99.90;;;;;;4964119;28;20062;-72
2021/11/03 01:39:12;;;;;;;11.88;10.65;;;5.40;99.90;;;;;;4957027;28;20035;-75
2021/11/03 01:41:40;;;;;;;9.73;8.90;;;5.40;99.90;;;;;;4954587;28;20047;-72
2021/11/03 01:44:16;;;;;;;11.18;10.20;;;5.30;99.90;;;;;;4974045;28;20043;-72
2021/11/03 01:46:44;;;;;;;11.70;8.95;;;5.30;99.90;;;;;;4959479;28;20050;-72
2021/11/03 01:49:28;;;;;;;10.02;8.65;;;5.30;99.90;;;;;;4955001;28;20595;-72
2021/11/03 01:52:09;;;;;;;10.80;9.80;;;5.30;99.90;;;;;;4955516;28;20055;-72
2021/11/03 01:54:44;;;;;;;12.32;9.00;;;5.40;99.90;;;;;;4970569;28;20051;-72
2021/11/03 01:57:19;;;;;;;9.20;8.43;;;5.40;99.90;;;;;;4955051;28;20054;-72
2021/11/03 01:59:49;;;;;;;9.48;8.60;;;5.40;99.90;;;;;;4963484;28;20035;-72
2021/11/03 02:02:19;;;;;;;9.65;8.77;;;5.40;99.90;;;;;;4954364;28;20051;-78
2021/11/03 02:04:48;;;;;;;9.32;8.57;;;5.40;99.90;;;;;;4960738;28;20047;-72
2021/11/03 02:07:18;;;;;;;9.05;8.20;;;5.40;99.90;;;;;;4973483;28;20043;-78
2021/11/03 02:09:45;;;;;;;9.73;8.93;;;5.50;99.90;;;;;;4957671;28;20051;-73
2021/11/03 02:12:18;;;;;;;9.88;8.80;;;5.50;99.90;;;;;;4955945;28;20058;-72
2021/11/03 02:14:46;;;;;;;10.32;8.05;;;5.50;99.90;;;;;;4971452;28;20035;-72
2021/11/03 02:17:14;;;;;;;9.52;8.65;;;5.50;99.90;;;;;;4962663;28;20031;-72
2021/11/03 02:19:42;;;;;;;10.85;9.88;;;5.60;99.90;;;;;;4957380;28;20370;-73
2021/11/03 02:22:23;;;;;;;11.07;9.63;;;5.70;99.90;;;;;;4969967;28;20054;-72
2021/11/03 02:24:50;;;;;;;;;;;5.60;99.90;;;;;;4957611;28;20054;-72
2021/11/03 02:27:18;;;;;;;9.88;8.95;;;5.70;99.90;;;;;;4956929;28;19953;-77
2021/11/03 02:29:44;;;;;;;10.27;9.15;;;5.70;99.90;;;;;;4961560;28;20038;-72
2021/11/03 02:32:13;;;;;;;11.02;9.85;;;5.80;99.90;;;;;;4969091;28;20051;-71
2021/11/03 02:34:40;;;;;;;9.18;8.27;;;5.70;99.90;;;;;;4955697;28;20042;-72
2021/11/03 02:37:29;;;;;;;10.75;9.68;;;5.70;99.90;;;;;;4955025;28;20054;-73
2021/11/03 02:40:04;;;;;;;9.90;9.07;;;5.70;99.90;;;;;;4954661;28;20055;-72
2021/11/03 02:42:33;;;;;;;9.57;8.68;;;5.80;99.90;;;;;;4955542;28;20042;-72
2021/11/03 02:45:06;;;;;;;9.13;8.25;;;5.80;99.90;;;;;;4954359;28;20050;-72
2021/11/03 02:47:33;;;;;;;9.43;8.73;;;5.70;99.90;;;;;;4954120;28;20042;-73
2021/11/03 02:49:59;;;;;;;10.93;9.70;;;5.80;99.90;;;;;;4953039;28;20051;-72
2021/11/03 02:52:26;;;;;;;10.27;9.25;;;5.80;99.90;;;;;;4955127;28;20043;-72
2021/11/03 02:54:53;;;;;;;10.20;9.27;;;5.80;99.90;;;;;;4953691;28;20051;-72
2021/11/03 02:57:20;;;;;;;9.63;8.63;;;5.90;99.90;;;;;;4972745;28;20039;-73
2021/11/03 02:59:46;;;;;;;11.85;10.20;;;5.80;99.90;;;;;;4972660;28;20049;-72
2021/11/03 03:02:13;;;;;;;11.05;10.05;;;5.90;99.90;;;;;;4956589;28;20043;-72
2021/11/03 03:04:43;;;;;;;9.57;8.77;;;5.90;99.90;;;;;;4969079;28;20043;-72
2021/11/03 03:07:11;;;;;;;10.52;9.60;;;6.00;99.90;;;;;;4968918;28;20050;-72
2021/11/03 03:09:37;;;;;;;9.35;8.65;;;6.00;99.90;;;;;;4954957;28;20572;-72
2021/11/03 03:12:06;;;;;;;10.98;10.00;;;6.10;99.90;;;;;;4969762;28;20409;-72
2021/11/03 03:14:40;;;;;;;10.77;9.77;;;6.10;99.90;;;;;;4968897;28;20066;-72
2021/11/03 03:17:10;;;;;;;10.98;9.82;;;6.10;99.90;;;;;;4954831;28;20035;-71
2021/11/03 03:19:38;;;;;;;10.50;9.50;;;6.10;99.90;;;;;;4968958;28;20046;-72
2021/11/03 03:22:05;;;;;;;11.27;10.18;;;6.10;99.90;;;;;;4969404;28;20047;-72
2021/11/03 03:24:31;;;;;;;11.30;10.32;;;6.10;99.90;;;;;;4954578;28;20055;-71
2021/11/03 03:26:58;;;;;;;11.25;10.10;;;6.10;99.90;;;;;;4959035;28;20051;-72
2021/11/03 03:29:25;;;;;;;10.50;9.50;;;6.10;99.90;;;;;;4961276;28;20404;-72
2021/11/03 03:31:51;;;;;;;9.35;8.45;;;6.10;99.90;;;;;;4953041;28;20054;-71
2021/11/03 03:34:21;;;;;;;9.82;8.90;;;6.10;99.90;;;;;;4954620;28;20054;-76
2021/11/03 03:36:51;;;;;;;8.85;8.18;;;6.10;99.90;;;;;;4955038;28;20043;-71
2021/11/03 03:39:20;;;;;;;9.55;8.68;;;6.10;99.90;;;;;;4961048;28;20039;-77
2021/11/03 03:42:00;;;;;;;10.50;9.57;;;6.10;99.90;;;;;;4952880;28;20054;-71
2021/11/03 03:44:27;;;;;;;10.68;9.60;;;6.10;99.90;;;;;;4964609;28;20038;-71
2021/11/03 03:46:55;;;;;;;10.93;9.88;;;6.10;99.90;;;;;;4959477;28;20050;-71
2021/11/03 03:49:22;;;;;;;11.30;10.30;;;6.20;99.90;;;;;;4964679;28;20050;-71
2021/11/03 03:51:48;;;;;;;11.32;10.23;;;6.20;99.90;;;;;;4954677;28;20051;-71
2021/11/03 03:54:16;;;;;;;11.05;10.02;;;6.20;99.90;;;;;;4968816;28;20114;-71
2021/11/03 03:56:42;;;;;;;12.32;11.13;;;6.30;99.90;;;;;;4953638;28;20038;-72
2021/11/03 03:59:09;;;;;;;11.07;10.02;;;6.30;99.90;;;;;;4969131;28;20051;-72
2021/11/03 04:01:37;;;;;;;12.52;11.52;;;6.40;99.90;;;;;;4956018;28;20042;-71
2021/11/03 04:04:10;;;;;;;10.40;9.52;;;6.40;99.90;;;;;;4964146;28;20043;-71
2021/11/03 04:06:37;;;;;;;23.20;12.48;;;6.50;99.90;;;;;;4953955;28;20043;-71
2021/11/03 04:09:05;;;;;;;11.10;10.07;;;6.60;99.90;;;;;;4968684;28;20050;-71
2021/11/03 04:11:32;;;;;;;11.43;9.65;;;6.50;99.90;;;;;;4959796;28;20046;-74
2021/11/03 04:13:59;;;;;;;12.18;10.30;;;6.50;99.90;;;;;;4961630;28;20495;-71
2021/11/03 04:16:27;;;;;;;11.90;10.80;;;6.60;99.90;;;;;;4951648;28;20511;-71
2021/11/03 04:18:54;;;;;;;10.18;9.02;;;6.60;99.90;;;;;;4952955;28;20050;-71
2021/11/03 04:21:20;;;;;;;10.65;9.60;;;6.60;99.90;;;;;;4967613;28;20055;-74
2021/11/03 04:23:47;;;;;;;11.30;10.18;;;6.60;99.90;;;;;;4970837;28;20059;-72
2021/11/03 04:26:23;;;;;;;9.80;8.90;;;6.60;99.90;;;;;;4968496;28;20043;-71
2021/11/03 04:28:51;;;;;;;10.68;9.65;;;6.60;99.90;;;;;;4957554;28;20046;-71
2021/11/03 04:31:18;;;;;;;11.25;10.23;;;6.60;99.90;;;;;;4966208;28;20385;-77
2021/11/03 04:33:45;;;;;;;16.05;11.43;;;6.60;99.90;;;;;;4954913;28;20042;-72
2021/11/03 04:36:12;;;;;;;11.95;10.85;;;6.60;99.90;;;;;;4970812;28;20051;-71
2021/11/03 04:38:38;;;;;;;11.85;10.10;;;6.60;99.90;;;;;;4953080;28;20043;-71
2021/11/03 04:41:05;;;;;;;8.90;8.30;;;6.60;99.90;;;;;;4983211;28;20039;-72
2021/11/03 04:43:32;;;;;;;11.50;8.93;;;6.70;99.90;;;;;;4955974;28;20361;-71
2021/11/03 04:45:59;;;;;;;10.68;9.75;;;6.70;99.90;;;;;;4953954;28;20058;-71
2021/11/03 04:48:26;;;;;;;10.50;9.43;;;6.70;99.90;;;;;;4959915;28;20485;-71
2021/11/03 04:50:53;;;;;;;10.20;9.40;;;6.70;99.90;;;;;;4952613;28;20392;-71
2021/11/03 04:53:22;;;;;;;10.50;8.60;;;6.70;99.90;;;;;;4951433;28;20047;-72
2021/11/03 04:55:49;;;;;;;9.93;8.77;;;6.70;99.90;;;;;;4968536;28;20055;-71
2021/11/03 04:58:16;;;;;;;10.63;9.80;;;6.70;99.90;;;;;;4967902;28;20043;-71
2021/11/03 05:00:45;;;;;;;10.82;9.70;;;6.70;99.90;;;;;;4953757;28;20031;-72
2021/11/03 05:03:13;;;;;;;10.52;9.55;;;6.60;99.90;;;;;;4954177;28;20031;-72
2021/11/03 05:05:39;;;;;;;11.07;9.55;;;6.60;99.90;;;;;;4953480;28;20015;-71
2021/11/03 05:08:07;;;;;;;11.13;9.88;;;6.60;99.90;;;;;;4951735;28;20050;-71
2021/11/03 05:10:33;;;;;;;10.10;9.05;;;6.60;99.90;;;;;;4962211;28;20043;-71
2021/11/03 05:12:59;;;;;;;10.82;9.82;;;6.60;99.90;;;;;;4955219;28;20063;-71
2021/11/03 05:15:28;;;;;;;10.80;9.15;;;6.60;99.90;;;;;;4968641;28;20043;-71
2021/11/03 05:17:54;;;;;;;9.15;8.27;;;6.60;99.90;;;;;;4976446;28;20378;-72
2021/11/03 05:20:21;;;;;;;10.00;8.73;;;6.70;99.90;;;;;;4955096;28;20408;-76
2021/11/03 05:22:49;;;;;;;11.18;10.00;;;6.60;99.90;;;;;;4971394;28;20051;-72
2021/11/03 05:25:22;;;;;;;11.55;9.32;;;6.70;99.90;;;;;;4970990;28;20042;-71
2021/11/03 05:27:49;;;;;;;10.80;9.88;;;6.70;99.90;;;;;;4957435;28;20059;-72
2021/11/03 05:30:16;;;;;;;12.07;10.70;;;6.70;99.90;;;;;;4974716;28;20042;-71
2021/11/03 05:32:42;;;;;;;10.10;9.20;;;6.70;99.90;;;;;;4970413;28;20046;-71
2021/11/03 05:35:09;;;;;;;9.75;8.95;;;6.70;99.90;;;;;;4956086;28;20038;-72
2021/11/03 05:37:36;;;;;;;10.80;9.90;;;6.60;99.90;;;;;;4967501;28;20396;-71
2021/11/03 05:40:06;;;;;;;13.45;12.25;;;6.60;99.90;;;;;;4960648;28;20491;-71
2021/11/03 05:42:32;;;;;;;14.30;10.07;;;6.60;99.90;;;;;;4956024;28;20039;-72
2021/11/03 05:45:02;;;;;;;10.18;9.07;;;6.60;99.90;;;;;;4956528;28;20465;-72
2021/11/03 05:47:31;;;;;;;9.27;8.52;;;6.60;99.90;;;;;;4956278;28;20381;-71
2021/11/03 05:49:58;;;;;;;10.48;9.43;;;6.70;99.90;;;;;;4961363;28;20441;-72
2021/11/03 05:52:25;;;;;;;11.30;10.27;;;6.80;99.90;;;;;;4975781;28;20473;-72
2021/11/03 05:54:52;;;;;;;11.63;10.52;;;6.90;99.90;;;;;;4972417;28;20042;-71
2021/11/03 05:57:30;;;;;;;11.75;10.70;;;7.00;99.90;;;;;;4956455;28;20042;-73
2021/11/03 05:59:58;;;;;;;11.10;10.10;;;7.10;99.90;;;;;;4955577;29;20042;-73
2021/11/03 06:02:25;;;;;;;9.30;8.55;;;7.00;99.90;;;;;;4956417;28;20028;-72
2021/11/03 06:04:51;;;;;;;10.30;9.35;;;7.00;99.90;;;;;;4960708;28;20035;-72
2021/11/03 06:07:21;;;;;;;8.82;8.13;;;7.00;99.90;;;;;;4967222;28;20050;-71
2021/11/03 06:09:47;;;;;;;9.60;8.70;;;6.90;99.90;;;;;;4956105;28;20038;-71
2021/11/03 06:12:14;;;;;;;10.20;9.13;;;7.00;99.90;;;;;;4956808;28;20039;-72
2021/11/03 06:14:40;;;;;;;10.18;9.27;;;7.10;99.90;;;;;;4955413;28;20062;-72
2021/11/03 06:17:07;;;;;;;10.18;9.25;;;7.10;99.90;;;;;;4955865;28;20050;-71
2021/11/03 06:19:34;;;;;;;9.50;8.25;;;7.10;99.90;;;;;;4955297;28;20063;-72
2021/11/03 06:22:00;;;;;;;8.23;7.53;;;6.90;99.90;;;;;;4954617;28;20031;-72
2021/11/03 06:24:28;;;;;;;8.25;7.53;;;6.70;99.90;;;;;;4955318;28;20472;-72
2021/11/03 06:26:58;;;;;;;9.20;8.48;;;6.70;99.90;;;;;;4955819;28;20051;-72
2021/11/03 06:29:25;;;;;;;8.50;7.80;;;6.80;99.90;;;;;;4955493;28;20473;-72
2021/11/03 06:31:51;;;;;;;8.52;7.75;;;6.90;99.90;;;;;;4955206;28;20047;-72
2021/11/03 06:34:17;;;;;;;8.10;7.40;;;6.80;99.90;;;;;;4955551;28;20047;-72
2021/11/03 06:36:44;;;;;;;8.32;7.63;;;6.90;99.90;;;;;;4957110;28;20412;-72
2021/11/03 06:39:10;;;;;;;8.80;7.55;;;6.90;99.90;;;;;;4963578;28;20390;-72
2021/11/03 06:41:38;;;;;;;7.90;7.10;;;6.90;99.90;;;;;;4962130;28;20030;-72
2021/11/03 06:44:05;;;;;;;8.20;7.45;;;6.90;99.90;;;;;;4966327;28;20461;-73
2021/11/03 06:46:32;;;;;;;8.38;7.57;;;6.90;99.90;;;;;;4953543;28;20043;-72
2021/11/03 06:48:59;;;;;;;8.55;7.75;;;7.00;99.90;;;;;;4960574;28;20385;-72
2021/11/03 06:51:25;;;;;;;9.05;8.25;;;7.00;99.90;;;;;;4954847;28;20039;-72
2021/11/03 06:53:51;;;;;;;8.18;7.47;;;7.00;99.90;;;;;;4955471;28;20051;-72
2021/11/03 06:56:17;;;;;;;8.88;8.00;;;6.90;99.90;;;;;;4955524;28;20042;-72
2021/11/03 06:58:44;;;;;;;8.68;7.88;;;7.00;99.90;;;;;;4954801;28;20031;-72
2021/11/03 07:01:11;;;;;;;9.05;8.25;;;7.10;99.90;;;;;;4955499;28;20035;-71
2021/11/03 07:03:39;;;;;;;8.93;7.18;;;7.10;99.90;;;;;;4954864;28;20043;-72
2021/11/03 07:06:07;;;;;;;14.20;12.75;;;7.00;99.90;;;;;;4955111;28;20035;-72
2021/11/03 07:08:33;;;;;;;31.65;28.55;;;7.10;99.90;;;;;;4966550;28;20088;-72
2021/11/03 07:11:00;;;;;;;21.65;17.77;;;7.10;99.90;;;;;;4970017;28;20039;-72
2021/11/03 07:13:28;;;;;;;11.70;10.70;;;7.20;99.90;;;;;;4969744;28;20404;-72
2021/11/03 07:15:55;;;;;;;14.75;13.18;;;7.20;99.90;;;;;;4955205;29;20039;-72
2021/11/03 07:18:23;;;;;;;12.20;11.02;;;7.30;99.90;;;;;;4966144;28;20050;-78
2021/11/03 07:20:50;;;;;;;9.95;9.00;;;7.30;99.90;;;;;;4969132;28;20042;-72
2021/11/03 07:23:19;;;;;;;11.43;10.48;;;7.20;99.90;;;;;;4955164;28;20036;-72
2021/11/03 07:25:45;;;;;;;13.18;11.80;;;7.20;99.90;;;;;;4954146;28;20035;-72
2021/11/03 07:28:12;;;;;;;15.52;13.95;;;7.20;99.90;;;;;;4954511;28;20098;-72
2021/11/03 07:30:39;;;;;;;16.75;15.20;;;7.40;99.90;;;;;;4954021;29;20047;-72
2021/11/03 07:33:07;;;;;;;16.92;15.32;;;7.40;99.90;;;;;;4969646;28;20039;-73
2021/11/03 07:35:35;;;;;;;16.33;12.43;;;7.40;99.90;;;;;;4956713;28;20062;-72
2021/11/03 07:38:02;;;;;;;11.35;9.82;;;7.50;99.90;;;;;;4955043;28;20046;-72
2021/11/03 07:40:35;;;;;;;12.38;11.35;;;7.50;99.90;;;;;;4953770;28;20408;-73
2021/11/03 07:43:02;;;;;;;10.73;9.82;;;7.40;99.90;;;;;;4968724;28;20401;-73
2021/11/03 07:45:31;;;;;;;9.80;8.98;;;7.50;99.90;;;;;;4953771;28;20034;-73
2021/11/03 07:47:59;;;;;;;12.18;8.57;;;7.60;99.90;;;;;;4954276;28;20108;-72
2021/11/03 07:50:29;;;;;;;11.95;8.75;;;7.60;99.90;;;;;;4954057;28;20047;-73
2021/11/03 07:52:55;;;;;;;8.13;6.25;;;7.70;99.90;;;;;;4954042;28;20042;-72
2021/11/03 07:55:22;;;;;;;8.60;7.70;;;7.70;99.90;;;;;;4953082;28;20051;-76
2021/11/03 07:57:48;;;;;;;7.97;6.65;;;7.70;99.90;;;;;;4954109;28;20408;-73
2021/11/03 08:00:36;;;;;;;6.18;4.85;;;7.70;99.90;;;;;;4967062;28;20039;-73
2021/11/03 08:03:02;;;;;;;4.80;3.95;;;7.60;99.90;;;;;;4956029;28;20039;-73
2021/11/03 08:05:29;;;;;;;5.28;3.85;;;7.60;99.90;;;;;;4953799;28;20027;-73
2021/11/03 08:07:58;;;;;;;8.27;5.00;;;7.60;99.90;;;;;;4953459;28;20070;-73
2021/11/03 08:10:26;;;;;;;6.07;3.88;;;7.60;99.90;;;;;;4953216;28;20035;-74
2021/11/03 08:12:54;;;;;;;4.43;3.95;;;7.60;99.90;;;;;;4967134;28;20050;-72
2021/11/03 08:15:21;;;;;;;6.03;4.70;;;7.60;99.90;;;;;;4954946;28;20552;-78
2021/11/03 08:17:48;;;;;;;8.93;4.55;;;7.60;99.90;;;;;;4954325;28;20381;-73
2021/11/03 08:20:19;;;;;;;6.97;3.55;;;7.70;99.90;;;;;;4952503;28;20027;-73
2021/11/03 08:22:47;;;;;;;4.65;3.75;;;7.70;99.90;;;;;;4953734;28;21812;-73
2021/11/03 08:25:13;;;;;;;5.05;4.53;;;7.70;99.90;;;;;;4953984;28;20039;-73
2021/11/03 08:27:40;;;;;;;7.03;4.75;;;7.70;99.90;;;;;;4953159;28;20039;-72
2021/11/03 08:30:10;;;;;;;6.55;5.15;;;7.70;99.90;;;;;;4953836;28;20031;-73
2021/11/03 08:32:47;;;;;;;3.88;3.45;;;7.80;99.90;;;;;;4953385;28;20062;-74
2021/11/03 08:35:14;;;;;;;4.50;2.97;;;7.80;99.90;;;;;;4954280;28;20380;-73
2021/11/03 08:37:42;;;;;;;5.60;3.63;;;7.80;99.90;;;;;;4952171;28;20050;-73
2021/11/03 08:40:12;;;;;;;5.97;3.65;;;7.80;99.90;;;;;;4953955;28;20046;-74
2021/11/03 08:42:38;;;;;;;4.13;3.73;;;7.90;99.90;;;;;;4953774;28;20050;-73
2021/11/03 08:45:07;;;;;;;4.00;3.03;;;7.80;99.90;;;;;;4957385;28;20031;-75
2021/11/03 08:47:35;;;;;;;6.05;4.00;;;7.90;99.90;;;;;;4971892;28;20038;-74
2021/11/03 08:50:01;;;;;;;5.03;3.67;;;7.90;99.90;;;;;;4957956;28;20035;-74
2021/11/03 08:52:27;;;;;;;6.90;3.53;;;8.00;99.90;;;;;;4957474;28;20039;-74
2021/11/03 08:54:53;;;;;;;5.07;3.45;;;8.00;99.90;;;;;;4957837;28;20050;-74
2021/11/03 08:57:20;;;;;;;3.72;3.38;;;8.00;99.90;;;;;;4957915;28;20397;-74
2021/11/03 08:59:51;;;;;;;5.85;4.28;;;8.00;99.90;;;;;;4955492;28;20495;-73
2021/11/03 09:02:18;;;;;;;3.72;3.40;;;8.00;99.90;;;;;;4957548;28;20381;-74
2021/11/03 09:04:46;;;;;;;18.13;3.50;;;8.00;99.90;;;;;;4956824;28;20038;-74
2021/11/03 09:07:13;;;;;;;5.35;3.92;;;8.00;99.90;;;;;;4958036;28;20040;-74
2021/11/03 09:09:45;;;;;;;5.70;3.45;;;8.00;99.90;;;;;;4965212;28;20032;-73
2021/11/03 09:12:13;;;;;;;4.75;3.35;;;8.00;99.90;;;;;;4957105;28;20043;-73
2021/11/03 09:14:40;;;;;;;3.95;3.55;;;8.10;99.90;;;;;;4956683;28;20476;-73
2021/11/03 09:17:08;;;;;;;3.25;2.97;;;8.10;99.90;;;;;;4957416;28;20358;-73
2021/11/03 09:19:36;;;;;;;4.20;3.72;;;8.10;99.90;;;;;;4956749;28;20030;-77
2021/11/03 09:22:02;;;;;;;4.53;4.13;;;8.20;99.90;;;;;;4957415;28;20098;-73
2021/11/03 09:24:48;;;;;;;4.93;3.70;;;8.20;99.90;;;;;;4956526;28;20035;-73
2021/11/03 09:27:15;;;;;;;5.72;4.50;;;8.30;99.90;;;;;;4956609;28;20054;-73
2021/11/03 09:29:45;;;;;;;5.38;3.28;;;8.40;99.90;;;;;;4956933;28;20027;-73
2021/11/03 09:32:14;;;;;;;5.72;3.75;;;8.40;99.90;;;;;;4957240;28;20038;-73
2021/11/03 09:34:43;;;;;;;6.25;2.75;;;8.50;99.90;;;;;;4956688;28;20420;-73
2021/11/03 09:37:11;;;;;;;3.58;2.92;;;8.50;99.90;;;;;;4956718;28;20054;-73
2021/11/03 09:39:44;;;;;;;4.60;2.60;;;8.60;99.90;;;;;;4971772;28;20043;-73
2021/11/03 09:42:13;;;;;;;5.32;2.80;;;8.60;99.90;;;;;;4957165;28;20052;-72
2021/11/03 09:44:42;;;;;;;2.20;2.00;;;8.60;99.90;;;;;;4956700;28;20046;-73
2021/11/03 09:47:17;;;;;;;4.38;2.60;;;8.50;99.90;;;;;;4964400;28;20477;-72
2021/11/03 09:49:58;;;;;;;3.47;2.58;;;8.50;99.90;;;;;;4956486;28;20042;-73
2021/11/03 09:52:37;;;;;;;4.82;2.47;;;8.50;99.90;;;;;;4969542;28;20046;-77
2021/11/03 09:55:23;;;;;;;3.35;2.45;;;8.60;99.90;;;;;;4956654;28;20046;-72
2021/11/03 09:58:16;;;;;;;4.38;2.67;;;8.60;99.90;;;;;;4956338;28;20481;-73
2021/11/03 10:00:44;;;;;;;4.07;3.30;;;8.50;99.90;;;;;;4956202;28;20222;-73
2021/11/03 10:03:10;;;;;;;6.57;3.58;;;8.50;99.90;;;;;;4967704;28;20054;-73
2021/11/03 10:05:50;;;;;;;5.22;3.78;;;8.50;99.90;;;;;;4955642;28;20050;-75
2021/11/03 10:08:20;;;;;;;2.88;2.67;;;8.50;99.90;;;;;;4981270;28;20042;-73
2021/11/03 10:10:59;;;;;;;4.43;3.97;;;8.40;99.90;;;;;;4955827;29;20038;-73
2021/11/03 10:13:37;;;;;;;11.07;3.80;;;8.50;99.90;;;;;;4955283;28;20078;-77
2021/11/03 10:16:15;;;;;;;2.45;2.25;;;8.50;99.90;;;;;;4956444;28;20040;-73
2021/11/03 10:18:56;;;;;;;2.53;2.33;;;8.60;99.90;;;;;;4955272;28;20032;-73
2021/11/03 10:21:24;;;;;;;4.55;2.63;;;8.60;99.90;;;;;;4956234;28;20034;-73
2021/11/03 10:24:05;;;;;;;3.65;2.40;;;8.70;99.90;;;;;;4955428;28;20039;-72
2021/11/03 10:26:56;;;;;;;12.68;2.28;;;8.80;99.90;;;;;;4955357;28;20046;-72
2021/11/03 10:29:37;;;;;;;5.20;2.08;;;8.80;99.90;;;;;;4956110;28;20054;-73
2021/11/03 10:32:07;;;;;;;4.18;2.25;;;8.90;99.90;;;;;;4975354;28;20384;-73
2021/11/03 10:34:33;;;;;;;2.30;1.30;;;8.90;99.90;;;;;;4956206;28;20039;-73
2021/11/03 10:37:23;;;;;;;4.28;2.22;;;8.90;99.90;;;;;;4955957;28;20477;-73
2021/11/03 10:40:04;;;;;;;2.40;1.88;;;9.00;99.90;;;;;;4962756;28;20058;-77
2021/11/03 10:42:47;;;;;;;1.52;1.42;;;9.10;99.90;;;;;;4973883;28;20043;-73
2021/11/03 10:45:27;;;;;;;2.97;2.05;;;9.20;99.90;;;;;;4956024;28;20046;-73
2021/11/03 10:47:55;;;;;;;2.63;1.73;;;9.20;99.90;;;;;;4953796;28;20046;-73
2021/11/03 10:50:40;;;;;;;2.63;2.08;;;9.20;99.90;;;;;;4955967;28;20374;-73
2021/11/03 10:53:29;;;;;;;2.28;1.85;;;9.20;99.90;;;;;;4953804;28;20057;-73
2021/11/03 10:56:05;;;;;;;12.05;10.82;;;9.20;99.90;;;;;;4968676;28;20039;-73
2021/11/03 10:58:36;;;;;;;7.07;5.38;;;9.40;99.90;;;;;;4954808;28;20035;-73
2021/11/03 11:01:13;;;;;;;15.43;9.73;;;9.50;99.90;;;;;;4955842;28;20028;-73
2021/11/03 11:04:11;;;;;;;14.48;10.55;;;9.60;99.90;;;;;;4955305;28;20042;-73
2021/11/03 11:06:58;;;;;;;23.90;21.55;;;9.50;99.90;;;;;;4953845;28;20035;-73
2021/11/03 11:09:42;;;;;;;9.35;3.63;;;9.40;99.90;;;;;;4955323;29;20031;-77
2021/11/03 11:12:25;;;;;;;6.78;1.92;;;9.30;99.90;;;;;;4955317;28;20047;-73
2021/11/03 11:14:55;;;;;;;8.65;3.35;;;9.20;99.90;;;;;;4954939;28;20043;-73
2021/11/03 11:17:34;;;;;;;2.90;2.35;;;9.20;99.90;;;;;;4954441;28;20059;-73
2021/11/03 11:20:13;;;;;;;4.63;4.22;;;9.20;99.90;;;;;;4954979;28;20035;-74
2021/11/03 11:23:04;;;;;;;8.35;5.03;;;9.20;99.90;;;;;;4954640;28;20047;-73
2021/11/03 11:25:48;;;;;;;5.60;4.30;;;9.20;99.90;;;;;;4962612;28;20047;-73
2021/11/03 11:28:30;;;;;;;11.90;4.57;;;9.00;99.90;;;;;;4955418;28;20062;-73
2021/11/03 11:31:04;;;;;;;6.40;4.00;;;9.00;99.90;;;;;;4954832;28;20035;-72
2021/11/03 11:33:36;;;;;;;7.65;3.05;;;9.10;99.90;;;;;;4954177;28;20044;-73
2021/11/03 11:36:13;;;;;;;8.65;2.92;;;9.00;99.90;;;;;;4955042;28;20043;-73
2021/11/03 11:39:01;;;;;;;5.68;4.72;;;9.00;99.90;;;;;;4954292;28;20039;-72
2021/11/03 11:41:50;;;;;;;3.63;3.00;;;8.90;99.90;;;;;;4962517;28;20034;-75
2021/11/03 11:44:31;;;;;;;5.45;5.00;;;8.90;99.90;;;;;;4954253;28;20046;-73
2021/11/03 11:47:01;;;;;;;4.00;3.58;;;8.90;99.90;;;;;;4954806;28;20035;-73
2021/11/03 11:49:32;;;;;;;4.40;3.75;;;9.00;99.90;;;;;;4954514;28;20035;-78
2021/11/03 11:52:04;;;;;;;4.32;3.08;;;9.10;99.90;;;;;;4953007;28;20058;-73
2021/11/03 11:54:40;;;;;;;6.90;4.05;;;9.10;99.90;;;;;;4954079;28;20477;-75
2021/11/03 11:57:13;;;;;;;4.03;3.47;;;9.20;99.90;;;;;;4968818;28;20054;-73
2021/11/03 12:00:08;;;;;;;4.55;2.38;;;9.20;99.90;;;;;;4954296;28;20031;-73
2021/11/03 12:02:50;;;;;;;5.03;3.40;;;9.20;99.90;;;;;;4953612;28;20043;-73
2021/11/03 12:05:47;;;;;;;3.80;2.65;;;9.20;99.90;;;;;;4954260;28;20412;-73
2021/11/03 12:08:20;;;;;;;3.60;2.83;;;9.30;99.90;;;;;;4954731;28;20039;-72
2021/11/03 12:10:55;;;;;;;3.85;3.50;;;9.30;99.90;;;;;;4970503;28;20038;-73
2021/11/03 12:13:29;;;;;;;6.57;4.32;;;9.30;99.90;;;;;;4954230;28;20500;-73
2021/11/03 12:15:55;;;;;;;4.43;4.03;;;9.30;99.90;;;;;;4962539;28;20049;-73
2021/11/03 12:18:24;;;;;;;5.03;4.45;;;9.30;99.90;;;;;;4962608;28;20034;-71
2021/11/03 12:20:52;;;;;;;4.03;3.60;;;9.40;99.90;;;;;;4955583;28;20392;-72
2021/11/03 12:24:15;;;;;;;3.97;3.58;;;9.40;99.90;;;;;;4954321;28;20036;-72
2021/11/03 12:26:47;;;;;;;6.80;3.60;;;9.30;99.90;;;;;;4953603;28;20035;-72
2021/11/03 12:29:17;;;;;;;6.53;2.92;;;9.30;99.90;;;;;;4970982;28;20030;-72
2021/11/03 12:31:46;;;;;;;3.00;2.70;;;9.30;99.90;;;;;;4952021;28;20047;-73
2021/11/03 12:34:17;;;;;;;5.18;3.60;;;9.30;99.90;;;;;;4954467;28;20039;-72
2021/11/03 12:36:46;;;;;;;;;;;9.30;99.90;;;;;;4953536;28;20031;-73
2021/11/03 12:39:26;;;;;;;5.20;2.55;;;9.30;99.90;;;;;;4959229;28;20367;-76
2021/11/03 12:41:52;;;;;;;4.50;2.53;;;9.30;99.90;;;;;;4964939;28;20488;-72
2021/11/03 12:44:36;;;;;;;4.50;2.75;;;9.30;99.90;;;;;;4967615;28;20050;-73
2021/11/03 12:47:12;;;;;;;3.03;2.38;;;9.30;99.90;;;;;;4953491;29;20054;-72
2021/11/03 12:49:38;;;;;;;2.80;2.55;;;9.20;99.90;;;;;;4969011;28;20038;-73
2021/11/03 12:52:11;;;;;;;4.13;2.63;;;9.20;99.90;;;;;;4957586;28;20377;-73
2021/11/03 12:54:38;;;;;;;4.28;3.47;;;9.20;99.90;;;;;;4953023;28;20054;-73
2021/11/03 12:57:17;;;;;;;8.30;3.20;;;9.20;99.90;;;;;;4954131;28;20465;-73
2021/11/03 13:00:03;;;;;;;6.45;3.20;;;9.10;99.90;;;;;;4953379;28;20035;-74
2021/11/03 13:02:36;;;;;;;2.85;2.65;;;9.20;99.90;;;;;;4953040;28;20050;-74
2021/11/03 13:05:14;;;;;;;4.25;3.17;;;9.10;99.90;;;;;;4952915;28;20039;-73
2021/11/03 13:07:41;;;;;;;5.43;3.13;;;9.20;99.90;;;;;;4952307;28;20054;-74